Pagina principale
METAR-TAF:

METAR-TAF

Aeroporti :

Aeroporto Internazionale di Khartum

Khartum, Sudan

latitudine: 15-36N, longitudine: 032-33E, altezza: 382 m

Osservazione

Il bollettino è stato emesso 16 minuti fa, alle 14:30 UTC
Vento 4 kt da nord-ovest
Temperature 40°C
Umidità 6%
Pressione 1007 hPa
Visibilità 10 km o più
nessuna nube inferiore a 1500 m e nessun cumulonembo

METAR: HSSS 211430Z 31004KT CAVOK 40/M05 Q1007 NOSIG

Ora: 17:46 (14:46 UTC)

Previsione

Il bollettino è stato emesso 3 ore e 46 minuti fa, alle 11:00 UTC
Previsione valida dal 21 alle 12 UTC al 22 alle 18 UTC
Vento 8 kt da sud/sud-ovest con raffiche fino a 18 kt
Visibilità 10 km o più
nessuna nube inferiore a 1500 m e nessun cumulonembo

TAF: HSSS 211100Z 2112/2218 21008G18KT CAVOK

Osservazioni e previsioni meteorologiche di più di 4000 aeroporti (messaggi METAR e TAF).

Le stazioni disponibili sono rappresentate dai dischi gialli e rossi sulla carta.

Puntare il mouse per vedere il nome della stazione.

Clicca sopra per visualizzare le osservazioni e previsioni meteorologiche.

Per cambiare la mappa : fare clic sui pulsanti verdi con una croce nera per ingrandire, il pulsante verde con un trattino per diminuire, o sulla freccia verde per le mappe adiacenti.


METAR-TAF: